sensor_id;sensor_type;location;lat;lon;timestamp;P1;durP1;ratioP1;P2;durP2;ratioP2
13973;SDS011;7060;43.770;4.008;2023-04-06T00:00:36;4.77;;;2.13;;
13973;SDS011;7060;43.770;4.008;2023-04-06T00:03:04;3.07;;;1.80;;
13973;SDS011;7060;43.770;4.008;2023-04-06T00:05:33;3.97;;;1.90;;
13973;SDS011;7060;43.770;4.008;2023-04-06T00:08:01;4.90;;;2.20;;
13973;SDS011;7060;43.770;4.008;2023-04-06T00:10:30;2.93;;;1.70;;
13973;SDS011;7060;43.770;4.008;2023-04-06T00:12:59;4.13;;;1.73;;
13973;SDS011;7060;43.770;4.008;2023-04-06T00:15:29;2.53;;;1.70;;
13973;SDS011;7060;43.770;4.008;2023-04-06T00:17:57;3.43;;;1.60;;
13973;SDS011;7060;43.770;4.008;2023-04-06T00:20:26;2.87;;;1.50;;
13973;SDS011;7060;43.770;4.008;2023-04-06T00:22:54;3.33;;;1.77;;
13973;SDS011;7060;43.770;4.008;2023-04-06T00:25:23;3.17;;;1.77;;
13973;SDS011;7060;43.770;4.008;2023-04-06T00:27:51;6.37;;;1.93;;
13973;SDS011;7060;43.770;4.008;2023-04-06T00:30:20;3.37;;;2.10;;
13973;SDS011;7060;43.770;4.008;2023-04-06T00:32:50;3.97;;;1.90;;
13973;SDS011;7060;43.770;4.008;2023-04-06T00:35:18;3.20;;;2.00;;
13973;SDS011;7060;43.770;4.008;2023-04-06T00:37:47;3.07;;;2.00;;
13973;SDS011;7060;43.770;4.008;2023-04-06T00:40:16;2.80;;;1.67;;
13973;SDS011;7060;43.770;4.008;2023-04-06T00:42:44;4.40;;;1.40;;
13973;SDS011;7060;43.770;4.008;2023-04-06T00:45:13;2.67;;;1.63;;
13973;SDS011;7060;43.770;4.008;2023-04-06T00:47:42;3.63;;;1.70;;
13973;SDS011;7060;43.770;4.008;2023-04-06T00:50:12;3.07;;;1.70;;
13973;SDS011;7060;43.770;4.008;2023-04-06T00:52:41;3.80;;;1.83;;
13973;SDS011;7060;43.770;4.008;2023-04-06T00:55:09;3.80;;;2.00;;
13973;SDS011;7060;43.770;4.008;2023-04-06T00:57:41;3.93;;;2.10;;
13973;SDS011;7060;43.770;4.008;2023-04-06T01:00:11;4.37;;;1.70;;
13973;SDS011;7060;43.770;4.008;2023-04-06T01:02:45;4.27;;;2.00;;
13973;SDS011;7060;43.770;4.008;2023-04-06T01:05:20;3.03;;;1.70;;
13973;SDS011;7060;43.770;4.008;2023-04-06T01:07:55;3.20;;;1.57;;
13973;SDS011;7060;43.770;4.008;2023-04-06T01:10:28;5.00;;;2.57;;
13973;SDS011;7060;43.770;4.008;2023-04-06T01:13:03;3.83;;;1.70;;
13973;SDS011;7060;43.770;4.008;2023-04-06T01:15:55;2.80;;;1.20;;
13973;SDS011;7060;43.770;4.008;2023-04-06T01:18:30;3.53;;;1.63;;
13973;SDS011;7060;43.770;4.008;2023-04-06T01:21:22;3.10;;;1.40;;
13973;SDS011;7060;43.770;4.008;2023-04-06T01:24:12;3.40;;;1.57;;
13973;SDS011;7060;43.770;4.008;2023-04-06T01:27:00;4.03;;;1.93;;
13973;SDS011;7060;43.770;4.008;2023-04-06T01:29:57;6.63;;;1.83;;
13973;SDS011;7060;43.770;4.008;2023-04-06T01:33:01;3.30;;;1.77;;
13973;SDS011;7060;43.770;4.008;2023-04-06T01:35:43;4.70;;;1.93;;
13973;SDS011;7060;43.770;4.008;2023-04-06T01:38:15;4.87;;;1.93;;
13973;SDS011;7060;43.770;4.008;2023-04-06T01:40:48;4.40;;;2.00;;
13973;SDS011;7060;43.770;4.008;2023-04-06T01:43:20;3.00;;;1.57;;
13973;SDS011;7060;43.770;4.008;2023-04-06T01:45:59;3.97;;;1.87;;
13973;SDS011;7060;43.770;4.008;2023-04-06T01:48:33;3.70;;;1.30;;
13973;SDS011;7060;43.770;4.008;2023-04-06T01:51:10;2.63;;;1.20;;
13973;SDS011;7060;43.770;4.008;2023-04-06T01:53:46;3.00;;;1.40;;
13973;SDS011;7060;43.770;4.008;2023-04-06T01:56:20;2.13;;;1.30;;
13973;SDS011;7060;43.770;4.008;2023-04-06T01:58:57;3.07;;;1.60;;
13973;SDS011;7060;43.770;4.008;2023-04-06T02:01:31;2.30;;;1.43;;
13973;SDS011;7060;43.770;4.008;2023-04-06T02:04:00;2.50;;;1.30;;
13973;SDS011;7060;43.770;4.008;2023-04-06T02:06:28;3.47;;;1.40;;
13973;SDS011;7060;43.770;4.008;2023-04-06T02:08:58;2.27;;;1.47;;
13973;SDS011;7060;43.770;4.008;2023-04-06T02:11:29;2.97;;;1.27;;
13973;SDS011;7060;43.770;4.008;2023-04-06T02:13:58;2.00;;;1.23;;
13973;SDS011;7060;43.770;4.008;2023-04-06T02:16:31;3.40;;;1.20;;
13973;SDS011;7060;43.770;4.008;2023-04-06T02:18:59;5.37;;;1.37;;
13973;SDS011;7060;43.770;4.008;2023-04-06T02:21:28;2.43;;;1.17;;
13973;SDS011;7060;43.770;4.008;2023-04-06T02:23:57;3.90;;;1.57;;
13973;SDS011;7060;43.770;4.008;2023-04-06T02:26:26;1.83;;;1.00;;
13973;SDS011;7060;43.770;4.008;2023-04-06T02:28:56;2.13;;;1.20;;
13973;SDS011;7060;43.770;4.008;2023-04-06T02:31:25;3.67;;;1.10;;
13973;SDS011;7060;43.770;4.008;2023-04-06T02:33:53;1.40;;;1.00;;
13973;SDS011;7060;43.770;4.008;2023-04-06T02:36:22;2.23;;;1.10;;
13973;SDS011;7060;43.770;4.008;2023-04-06T02:38:51;4.30;;;1.30;;
13973;SDS011;7060;43.770;4.008;2023-04-06T02:41:19;1.73;;;1.10;;
13973;SDS011;7060;43.770;4.008;2023-04-06T02:43:49;7.50;;;1.00;;
13973;SDS011;7060;43.770;4.008;2023-04-06T02:46:29;1.90;;;1.07;;
13973;SDS011;7060;43.770;4.008;2023-04-06T02:48:57;2.07;;;1.20;;
13973;SDS011;7060;43.770;4.008;2023-04-06T02:51:30;1.40;;;1.00;;
13973;SDS011;7060;43.770;4.008;2023-04-06T02:54:10;2.87;;;1.43;;
13973;SDS011;7060;43.770;4.008;2023-04-06T02:56:38;3.40;;;0.90;;
13973;SDS011;7060;43.770;4.008;2023-04-06T02:59:07;1.80;;;1.00;;
13973;SDS011;7060;43.770;4.008;2023-04-06T03:01:38;2.90;;;1.40;;
13973;SDS011;7060;43.770;4.008;2023-04-06T03:04:07;3.33;;;1.10;;
13973;SDS011;7060;43.770;4.008;2023-04-06T03:06:36;1.57;;;0.90;;
13973;SDS011;7060;43.770;4.008;2023-04-06T03:09:14;7.93;;;0.93;;
13973;SDS011;7060;43.770;4.008;2023-04-06T03:11:44;3.17;;;1.00;;
13973;SDS011;7060;43.770;4.008;2023-04-06T03:14:13;1.63;;;0.90;;
13973;SDS011;7060;43.770;4.008;2023-04-06T03:16:45;1.90;;;1.00;;
13973;SDS011;7060;43.770;4.008;2023-04-06T03:19:17;1.60;;;0.97;;
13973;SDS011;7060;43.770;4.008;2023-04-06T03:21:46;1.73;;;1.10;;
13973;SDS011;7060;43.770;4.008;2023-04-06T03:24:16;2.90;;;1.00;;
13973;SDS011;7060;43.770;4.008;2023-04-06T03:26:44;1.63;;;0.93;;
13973;SDS011;7060;43.770;4.008;2023-04-06T03:29:13;1.90;;;0.90;;
13973;SDS011;7060;43.770;4.008;2023-04-06T03:31:41;2.70;;;1.13;;
13973;SDS011;7060;43.770;4.008;2023-04-06T03:34:38;1.57;;;1.03;;
13973;SDS011;7060;43.770;4.008;2023-04-06T03:37:07;2.27;;;1.17;;
13973;SDS011;7060;43.770;4.008;2023-04-06T03:39:43;1.87;;;0.83;;
13973;SDS011;7060;43.770;4.008;2023-04-06T03:42:17;1.80;;;0.90;;
13973;SDS011;7060;43.770;4.008;2023-04-06T03:44:51;2.23;;;0.80;;
13973;SDS011;7060;43.770;4.008;2023-04-06T03:47:19;1.70;;;1.10;;
13973;SDS011;7060;43.770;4.008;2023-04-06T03:49:51;1.70;;;1.00;;
13973;SDS011;7060;43.770;4.008;2023-04-06T03:52:20;2.80;;;0.90;;
13973;SDS011;7060;43.770;4.008;2023-04-06T03:54:51;2.17;;;1.40;;
13973;SDS011;7060;43.770;4.008;2023-04-06T03:57:19;2.37;;;1.13;;
13973;SDS011;7060;43.770;4.008;2023-04-06T03:59:48;1.30;;;0.80;;
13973;SDS011;7060;43.770;4.008;2023-04-06T04:02:16;2.17;;;0.90;;
13973;SDS011;7060;43.770;4.008;2023-04-06T04:04:45;2.67;;;1.00;;
13973;SDS011;7060;43.770;4.008;2023-04-06T04:07:15;2.10;;;0.80;;
13973;SDS011;7060;43.770;4.008;2023-04-06T04:09:43;2.03;;;1.00;;
13973;SDS011;7060;43.770;4.008;2023-04-06T04:12:13;2.43;;;1.20;;
13973;SDS011;7060;43.770;4.008;2023-04-06T04:14:43;1.53;;;1.00;;
13973;SDS011;7060;43.770;4.008;2023-04-06T04:17:11;2.67;;;1.10;;
13973;SDS011;7060;43.770;4.008;2023-04-06T04:19:40;8.90;;;1.50;;
13973;SDS011;7060;43.770;4.008;2023-04-06T04:22:09;2.20;;;1.03;;
13973;SDS011;7060;43.770;4.008;2023-04-06T04:24:40;3.10;;;1.00;;
13973;SDS011;7060;43.770;4.008;2023-04-06T04:27:09;4.97;;;1.20;;
13973;SDS011;7060;43.770;4.008;2023-04-06T04:29:39;1.33;;;0.80;;
13973;SDS011;7060;43.770;4.008;2023-04-06T04:32:10;3.87;;;1.00;;
13973;SDS011;7060;43.770;4.008;2023-04-06T04:34:39;1.70;;;1.10;;
13973;SDS011;7060;43.770;4.008;2023-04-06T04:37:12;1.67;;;0.90;;
13973;SDS011;7060;43.770;4.008;2023-04-06T04:39:55;1.07;;;0.87;;
13973;SDS011;7060;43.770;4.008;2023-04-06T04:42:23;1.73;;;1.10;;
13973;SDS011;7060;43.770;4.008;2023-04-06T04:44:55;2.27;;;1.37;;
13973;SDS011;7060;43.770;4.008;2023-04-06T04:47:36;1.87;;;1.20;;
13973;SDS011;7060;43.770;4.008;2023-04-06T04:50:06;3.40;;;1.30;;
13973;SDS011;7060;43.770;4.008;2023-04-06T04:52:38;1.70;;;0.80;;
13973;SDS011;7060;43.770;4.008;2023-04-06T04:55:16;1.53;;;0.83;;
13973;SDS011;7060;43.770;4.008;2023-04-06T04:57:47;3.00;;;1.20;;
13973;SDS011;7060;43.770;4.008;2023-04-06T05:00:20;1.40;;;1.10;;
13973;SDS011;7060;43.770;4.008;2023-04-06T05:02:50;1.40;;;1.10;;
13973;SDS011;7060;43.770;4.008;2023-04-06T05:05:23;3.23;;;1.40;;
13973;SDS011;7060;43.770;4.008;2023-04-06T05:07:53;3.10;;;1.60;;
13973;SDS011;7060;43.770;4.008;2023-04-06T05:10:55;3.43;;;1.40;;
13973;SDS011;7060;43.770;4.008;2023-04-06T05:13:25;4.03;;;1.03;;
13973;SDS011;7060;43.770;4.008;2023-04-06T05:15:55;4.07;;;1.47;;
13973;SDS011;7060;43.770;4.008;2023-04-06T05:18:29;2.90;;;1.20;;
13973;SDS011;7060;43.770;4.008;2023-04-06T05:20:59;5.17;;;1.20;;
13973;SDS011;7060;43.770;4.008;2023-04-06T05:23:39;4.83;;;1.10;;
13973;SDS011;7060;43.770;4.008;2023-04-06T05:26:09;4.40;;;1.00;;
13973;SDS011;7060;43.770;4.008;2023-04-06T05:28:38;5.53;;;1.50;;
13973;SDS011;7060;43.770;4.008;2023-04-06T05:31:09;7.27;;;1.20;;
13973;SDS011;7060;43.770;4.008;2023-04-06T05:33:45;7.13;;;1.10;;
13973;SDS011;7060;43.770;4.008;2023-04-06T05:36:15;3.50;;;1.33;;
13973;SDS011;7060;43.770;4.008;2023-04-06T05:38:46;8.67;;;1.30;;
13973;SDS011;7060;43.770;4.008;2023-04-06T05:41:28;7.80;;;1.23;;
13973;SDS011;7060;43.770;4.008;2023-04-06T05:43:56;7.03;;;1.17;;
13973;SDS011;7060;43.770;4.008;2023-04-06T05:46:26;2.07;;;0.70;;
13973;SDS011;7060;43.770;4.008;2023-04-06T05:48:57;4.23;;;1.07;;
13973;SDS011;7060;43.770;4.008;2023-04-06T05:51:29;3.77;;;1.20;;
13973;SDS011;7060;43.770;4.008;2023-04-06T05:53:58;3.07;;;1.00;;
13973;SDS011;7060;43.770;4.008;2023-04-06T05:56:28;3.90;;;0.93;;
13973;SDS011;7060;43.770;4.008;2023-04-06T05:59:00;1.63;;;0.80;;
13973;SDS011;7060;43.770;4.008;2023-04-06T06:01:29;3.23;;;1.13;;
13973;SDS011;7060;43.770;4.008;2023-04-06T06:04:00;5.57;;;0.80;;
13973;SDS011;7060;43.770;4.008;2023-04-06T06:06:31;5.53;;;1.07;;
13973;SDS011;7060;43.770;4.008;2023-04-06T06:09:26;4.83;;;1.00;;
13973;SDS011;7060;43.770;4.008;2023-04-06T06:12:04;1.40;;;0.80;;
13973;SDS011;7060;43.770;4.008;2023-04-06T06:14:33;2.17;;;1.10;;
13973;SDS011;7060;43.770;4.008;2023-04-06T06:17:02;5.17;;;1.00;;
13973;SDS011;7060;43.770;4.008;2023-04-06T06:19:31;2.47;;;1.13;;
13973;SDS011;7060;43.770;4.008;2023-04-06T06:22:03;8.23;;;1.30;;
13973;SDS011;7060;43.770;4.008;2023-04-06T06:24:35;3.70;;;1.10;;
13973;SDS011;7060;43.770;4.008;2023-04-06T06:27:05;4.37;;;1.20;;
13973;SDS011;7060;43.770;4.008;2023-04-06T06:29:37;3.97;;;0.80;;
13973;SDS011;7060;43.770;4.008;2023-04-06T06:32:06;4.90;;;0.90;;
13973;SDS011;7060;43.770;4.008;2023-04-06T06:34:36;4.43;;;1.00;;
13973;SDS011;7060;43.770;4.008;2023-04-06T06:37:06;3.37;;;1.00;;
13973;SDS011;7060;43.770;4.008;2023-04-06T06:39:37;3.33;;;1.50;;
13973;SDS011;7060;43.770;4.008;2023-04-06T06:42:06;3.57;;;1.07;;
13973;SDS011;7060;43.770;4.008;2023-04-06T06:45:05;1.57;;;0.70;;
13973;SDS011;7060;43.770;4.008;2023-04-06T06:47:35;3.73;;;0.70;;
13973;SDS011;7060;43.770;4.008;2023-04-06T06:50:04;5.07;;;0.80;;
13973;SDS011;7060;43.770;4.008;2023-04-06T06:52:33;2.47;;;0.77;;
13973;SDS011;7060;43.770;4.008;2023-04-06T06:55:02;1.13;;;0.70;;
13973;SDS011;7060;43.770;4.008;2023-04-06T06:57:32;1.50;;;0.90;;
13973;SDS011;7060;43.770;4.008;2023-04-06T07:00:01;1.17;;;0.73;;
13973;SDS011;7060;43.770;4.008;2023-04-06T07:02:33;1.93;;;1.10;;
13973;SDS011;7060;43.770;4.008;2023-04-06T07:05:02;5.50;;;1.50;;
13973;SDS011;7060;43.770;4.008;2023-04-06T07:07:50;7.17;;;1.93;;
13973;SDS011;7060;43.770;4.008;2023-04-06T07:10:19;5.43;;;2.40;;
13973;SDS011;7060;43.770;4.008;2023-04-06T07:12:49;3.57;;;1.97;;
13973;SDS011;7060;43.770;4.008;2023-04-06T07:15:18;2.43;;;1.53;;
13973;SDS011;7060;43.770;4.008;2023-04-06T07:17:46;2.10;;;1.00;;
13973;SDS011;7060;43.770;4.008;2023-04-06T07:20:15;1.27;;;0.87;;
13973;SDS011;7060;43.770;4.008;2023-04-06T07:22:44;5.00;;;1.23;;
13973;SDS011;7060;43.770;4.008;2023-04-06T07:25:12;4.03;;;0.97;;
13973;SDS011;7060;43.770;4.008;2023-04-06T07:27:41;2.20;;;0.70;;
13973;SDS011;7060;43.770;4.008;2023-04-06T07:30:12;4.00;;;0.63;;
13973;SDS011;7060;43.770;4.008;2023-04-06T07:32:41;1.20;;;0.63;;
13973;SDS011;7060;43.770;4.008;2023-04-06T07:35:10;3.30;;;0.80;;
13973;SDS011;7060;43.770;4.008;2023-04-06T07:37:39;1.03;;;0.73;;
13973;SDS011;7060;43.770;4.008;2023-04-06T07:40:09;2.60;;;1.30;;
13973;SDS011;7060;43.770;4.008;2023-04-06T07:42:39;1.47;;;0.70;;
13973;SDS011;7060;43.770;4.008;2023-04-06T07:45:09;1.77;;;0.80;;
13973;SDS011;7060;43.770;4.008;2023-04-06T07:47:39;1.53;;;0.80;;
13973;SDS011;7060;43.770;4.008;2023-04-06T07:50:08;3.37;;;1.10;;
13973;SDS011;7060;43.770;4.008;2023-04-06T07:52:38;4.10;;;1.20;;
13973;SDS011;7060;43.770;4.008;2023-04-06T07:55:07;3.47;;;1.30;;
13973;SDS011;7060;43.770;4.008;2023-04-06T07:57:36;2.17;;;0.93;;
13973;SDS011;7060;43.770;4.008;2023-04-06T08:00:05;4.10;;;0.90;;
13973;SDS011;7060;43.770;4.008;2023-04-06T08:02:40;3.23;;;0.80;;
13973;SDS011;7060;43.770;4.008;2023-04-06T08:05:09;2.50;;;0.50;;
13973;SDS011;7060;43.770;4.008;2023-04-06T08:07:37;6.20;;;0.70;;
13973;SDS011;7060;43.770;4.008;2023-04-06T08:10:06;3.20;;;0.90;;
13973;SDS011;7060;43.770;4.008;2023-04-06T08:12:35;2.43;;;0.90;;
13973;SDS011;7060;43.770;4.008;2023-04-06T08:15:04;2.17;;;0.70;;
13973;SDS011;7060;43.770;4.008;2023-04-06T08:17:33;2.53;;;0.97;;
13973;SDS011;7060;43.770;4.008;2023-04-06T08:20:03;1.43;;;0.90;;
13973;SDS011;7060;43.770;4.008;2023-04-06T08:22:32;2.00;;;1.17;;
13973;SDS011;7060;43.770;4.008;2023-04-06T08:25:01;1.73;;;1.03;;
13973;SDS011;7060;43.770;4.008;2023-04-06T08:27:29;1.67;;;0.97;;
13973;SDS011;7060;43.770;4.008;2023-04-06T08:29:58;2.13;;;1.10;;
13973;SDS011;7060;43.770;4.008;2023-04-06T08:32:26;3.53;;;0.90;;
13973;SDS011;7060;43.770;4.008;2023-04-06T08:34:55;1.17;;;0.70;;
13973;SDS011;7060;43.770;4.008;2023-04-06T08:37:26;1.70;;;0.70;;
13973;SDS011;7060;43.770;4.008;2023-04-06T08:39:57;1.43;;;0.67;;
13973;SDS011;7060;43.770;4.008;2023-04-06T08:42:25;1.23;;;0.70;;
13973;SDS011;7060;43.770;4.008;2023-04-06T08:44:59;3.47;;;1.20;;
13973;SDS011;7060;43.770;4.008;2023-04-06T08:47:28;1.20;;;0.77;;
13973;SDS011;7060;43.770;4.008;2023-04-06T08:49:57;2.17;;;1.47;;
13973;SDS011;7060;43.770;4.008;2023-04-06T08:52:30;3.10;;;1.70;;
13973;SDS011;7060;43.770;4.008;2023-04-06T08:55:00;2.10;;;1.50;;
13973;SDS011;7060;43.770;4.008;2023-04-06T08:57:28;3.50;;;1.43;;
13973;SDS011;7060;43.770;4.008;2023-04-06T08:59:58;2.90;;;1.00;;
13973;SDS011;7060;43.770;4.008;2023-04-06T09:02:29;1.03;;;0.80;;
13973;SDS011;7060;43.770;4.008;2023-04-06T09:04:57;1.23;;;0.70;;
13973;SDS011;7060;43.770;4.008;2023-04-06T09:07:29;1.60;;;0.80;;
13973;SDS011;7060;43.770;4.008;2023-04-06T09:09:58;2.57;;;0.87;;
13973;SDS011;7060;43.770;4.008;2023-04-06T09:12:27;2.20;;;0.80;;
13973;SDS011;7060;43.770;4.008;2023-04-06T09:14:57;4.03;;;1.10;;
13973;SDS011;7060;43.770;4.008;2023-04-06T09:17:27;1.87;;;0.90;;
13973;SDS011;7060;43.770;4.008;2023-04-06T09:19:56;2.80;;;0.93;;
13973;SDS011;7060;43.770;4.008;2023-04-06T09:22:25;1.33;;;0.90;;
13973;SDS011;7060;43.770;4.008;2023-04-06T09:24:57;1.20;;;0.63;;
13973;SDS011;7060;43.770;4.008;2023-04-06T09:27:32;1.67;;;0.97;;
13973;SDS011;7060;43.770;4.008;2023-04-06T09:30:02;1.23;;;0.73;;
13973;SDS011;7060;43.770;4.008;2023-04-06T09:32:32;1.07;;;0.70;;
13973;SDS011;7060;43.770;4.008;2023-04-06T09:35:11;1.57;;;0.70;;
13973;SDS011;7060;43.770;4.008;2023-04-06T09:37:40;3.23;;;0.90;;
13973;SDS011;7060;43.770;4.008;2023-04-06T09:40:11;1.63;;;0.80;;
13973;SDS011;7060;43.770;4.008;2023-04-06T09:42:41;2.57;;;0.90;;
13973;SDS011;7060;43.770;4.008;2023-04-06T09:45:11;1.40;;;0.80;;
13973;SDS011;7060;43.770;4.008;2023-04-06T09:47:42;2.43;;;0.80;;
13973;SDS011;7060;43.770;4.008;2023-04-06T09:50:12;0.90;;;0.70;;
13973;SDS011;7060;43.770;4.008;2023-04-06T09:52:46;1.47;;;0.83;;
13973;SDS011;7060;43.770;4.008;2023-04-06T09:55:20;1.17;;;0.70;;
13973;SDS011;7060;43.770;4.008;2023-04-06T09:57:53;2.33;;;0.67;;
13973;SDS011;7060;43.770;4.008;2023-04-06T10:00:26;3.53;;;0.80;;
13973;SDS011;7060;43.770;4.008;2023-04-06T10:02:56;1.10;;;0.80;;
13973;SDS011;7060;43.770;4.008;2023-04-06T10:05:36;2.37;;;0.80;;
13973;SDS011;7060;43.770;4.008;2023-04-06T10:08:10;1.10;;;0.70;;
13973;SDS011;7060;43.770;4.008;2023-04-06T10:10:41;1.30;;;0.80;;
13973;SDS011;7060;43.770;4.008;2023-04-06T10:13:11;3.67;;;0.80;;
13973;SDS011;7060;43.770;4.008;2023-04-06T10:15:39;0.90;;;0.60;;
13973;SDS011;7060;43.770;4.008;2023-04-06T10:18:09;1.07;;;0.70;;
13973;SDS011;7060;43.770;4.008;2023-04-06T10:20:39;2.33;;;0.70;;
13973;SDS011;7060;43.770;4.008;2023-04-06T10:23:12;2.27;;;0.90;;
13973;SDS011;7060;43.770;4.008;2023-04-06T10:25:55;2.50;;;0.70;;
13973;SDS011;7060;43.770;4.008;2023-04-06T10:28:25;2.40;;;0.70;;
13973;SDS011;7060;43.770;4.008;2023-04-06T10:30:56;1.50;;;0.70;;
13973;SDS011;7060;43.770;4.008;2023-04-06T10:33:26;1.23;;;0.63;;
13973;SDS011;7060;43.770;4.008;2023-04-06T10:35:55;0.67;;;0.50;;
13973;SDS011;7060;43.770;4.008;2023-04-06T10:38:33;1.97;;;0.77;;
13973;SDS011;7060;43.770;4.008;2023-04-06T10:41:08;4.73;;;1.67;;
13973;SDS011;7060;43.770;4.008;2023-04-06T10:43:39;2.67;;;0.60;;
13973;SDS011;7060;43.770;4.008;2023-04-06T10:46:09;1.57;;;0.70;;
13973;SDS011;7060;43.770;4.008;2023-04-06T10:48:38;1.40;;;0.70;;
13973;SDS011;7060;43.770;4.008;2023-04-06T10:51:08;2.30;;;0.60;;
13973;SDS011;7060;43.770;4.008;2023-04-06T10:53:39;1.23;;;0.60;;
13973;SDS011;7060;43.770;4.008;2023-04-06T10:56:12;2.10;;;0.50;;
13973;SDS011;7060;43.770;4.008;2023-04-06T10:58:44;1.10;;;0.70;;
13973;SDS011;7060;43.770;4.008;2023-04-06T11:01:14;6.67;;;1.00;;
13973;SDS011;7060;43.770;4.008;2023-04-06T11:03:44;1.57;;;0.73;;
13973;SDS011;7060;43.770;4.008;2023-04-06T11:06:19;1.27;;;0.60;;
13973;SDS011;7060;43.770;4.008;2023-04-06T11:08:48;3.33;;;0.70;;
13973;SDS011;7060;43.770;4.008;2023-04-06T11:11:20;1.00;;;0.50;;
13973;SDS011;7060;43.770;4.008;2023-04-06T11:13:50;1.90;;;0.80;;
13973;SDS011;7060;43.770;4.008;2023-04-06T11:16:20;1.80;;;1.10;;
13973;SDS011;7060;43.770;4.008;2023-04-06T11:18:50;1.00;;;0.70;;
13973;SDS011;7060;43.770;4.008;2023-04-06T11:21:30;1.43;;;0.63;;
13973;SDS011;7060;43.770;4.008;2023-04-06T11:24:04;1.30;;;0.80;;
13973;SDS011;7060;43.770;4.008;2023-04-06T11:26:38;1.40;;;0.70;;
13973;SDS011;7060;43.770;4.008;2023-04-06T11:29:07;1.63;;;0.70;;
13973;SDS011;7060;43.770;4.008;2023-04-06T11:31:42;0.83;;;0.53;;
13973;SDS011;7060;43.770;4.008;2023-04-06T11:34:13;1.53;;;0.70;;
13973;SDS011;7060;43.770;4.008;2023-04-06T11:36:45;1.53;;;0.80;;
13973;SDS011;7060;43.770;4.008;2023-04-06T11:39:18;1.00;;;0.80;;
13973;SDS011;7060;43.770;4.008;2023-04-06T11:41:49;1.57;;;0.50;;
13973;SDS011;7060;43.770;4.008;2023-04-06T11:44:28;1.03;;;0.60;;
13973;SDS011;7060;43.770;4.008;2023-04-06T11:47:00;1.10;;;0.60;;
13973;SDS011;7060;43.770;4.008;2023-04-06T11:49:29;0.83;;;0.60;;
13973;SDS011;7060;43.770;4.008;2023-04-06T11:51:59;7.30;;;0.80;;
13973;SDS011;7060;43.770;4.008;2023-04-06T11:54:31;2.27;;;0.80;;
13973;SDS011;7060;43.770;4.008;2023-04-06T11:57:03;4.17;;;0.80;;
13973;SDS011;7060;43.770;4.008;2023-04-06T11:59:32;2.93;;;0.87;;
13973;SDS011;7060;43.770;4.008;2023-04-06T12:02:01;2.10;;;0.70;;
13973;SDS011;7060;43.770;4.008;2023-04-06T12:04:30;3.57;;;0.83;;
13973;SDS011;7060;43.770;4.008;2023-04-06T12:06:59;1.70;;;0.70;;
13973;SDS011;7060;43.770;4.008;2023-04-06T12:09:28;1.73;;;0.70;;
13973;SDS011;7060;43.770;4.008;2023-04-06T12:11:57;1.33;;;0.80;;
13973;SDS011;7060;43.770;4.008;2023-04-06T12:14:27;2.13;;;0.73;;
13973;SDS011;7060;43.770;4.008;2023-04-06T12:16:57;1.77;;;0.90;;
13973;SDS011;7060;43.770;4.008;2023-04-06T12:19:26;1.03;;;0.70;;
13973;SDS011;7060;43.770;4.008;2023-04-06T12:21:56;1.63;;;0.80;;
13973;SDS011;7060;43.770;4.008;2023-04-06T12:24:27;2.90;;;0.70;;
13973;SDS011;7060;43.770;4.008;2023-04-06T12:26:57;1.00;;;0.50;;
13973;SDS011;7060;43.770;4.008;2023-04-06T12:29:37;0.80;;;0.70;;
13973;SDS011;7060;43.770;4.008;2023-04-06T12:32:06;0.60;;;0.50;;
13973;SDS011;7060;43.770;4.008;2023-04-06T12:34:35;2.80;;;0.70;;
13973;SDS011;7060;43.770;4.008;2023-04-06T12:37:03;1.17;;;0.60;;
13973;SDS011;7060;43.770;4.008;2023-04-06T12:39:32;1.23;;;0.63;;
13973;SDS011;7060;43.770;4.008;2023-04-06T12:42:01;1.93;;;0.60;;
13973;SDS011;7060;43.770;4.008;2023-04-06T12:44:29;1.23;;;0.80;;
13973;SDS011;7060;43.770;4.008;2023-04-06T12:46:59;1.23;;;0.83;;
13973;SDS011;7060;43.770;4.008;2023-04-06T12:49:28;4.87;;;0.80;;
13973;SDS011;7060;43.770;4.008;2023-04-06T12:51:57;1.90;;;0.70;;
13973;SDS011;7060;43.770;4.008;2023-04-06T12:54:27;1.27;;;0.80;;
13973;SDS011;7060;43.770;4.008;2023-04-06T12:56:55;1.30;;;0.90;;
13973;SDS011;7060;43.770;4.008;2023-04-06T12:59:24;1.00;;;0.80;;
13973;SDS011;7060;43.770;4.008;2023-04-06T13:01:53;2.63;;;0.80;;
13973;SDS011;7060;43.770;4.008;2023-04-06T13:04:23;1.73;;;1.00;;
13973;SDS011;7060;43.770;4.008;2023-04-06T13:06:53;3.07;;;0.90;;
13973;SDS011;7060;43.770;4.008;2023-04-06T13:09:21;1.30;;;0.90;;
13973;SDS011;7060;43.770;4.008;2023-04-06T13:11:50;4.07;;;1.00;;
13973;SDS011;7060;43.770;4.008;2023-04-06T13:14:18;1.47;;;0.80;;
13973;SDS011;7060;43.770;4.008;2023-04-06T13:16:48;2.30;;;1.20;;
13973;SDS011;7060;43.770;4.008;2023-04-06T13:19:17;2.67;;;1.07;;
13973;SDS011;7060;43.770;4.008;2023-04-06T13:21:48;1.73;;;0.83;;
13973;SDS011;7060;43.770;4.008;2023-04-06T13:24:16;2.50;;;0.90;;
13973;SDS011;7060;43.770;4.008;2023-04-06T13:26:46;1.43;;;0.90;;
13973;SDS011;7060;43.770;4.008;2023-04-06T13:29:14;1.57;;;0.87;;
13973;SDS011;7060;43.770;4.008;2023-04-06T13:31:43;1.87;;;1.00;;
13973;SDS011;7060;43.770;4.008;2023-04-06T13:34:11;2.43;;;0.80;;
13973;SDS011;7060;43.770;4.008;2023-04-06T13:36:40;2.93;;;1.00;;
13973;SDS011;7060;43.770;4.008;2023-04-06T13:39:11;2.10;;;0.90;;
13973;SDS011;7060;43.770;4.008;2023-04-06T13:41:39;3.10;;;0.93;;
13973;SDS011;7060;43.770;4.008;2023-04-06T13:44:08;2.20;;;0.83;;
13973;SDS011;7060;43.770;4.008;2023-04-06T13:46:36;2.07;;;0.87;;
13973;SDS011;7060;43.770;4.008;2023-04-06T13:49:05;4.37;;;1.00;;
13973;SDS011;7060;43.770;4.008;2023-04-06T13:51:33;2.10;;;0.90;;
13973;SDS011;7060;43.770;4.008;2023-04-06T13:54:02;1.87;;;0.80;;
13973;SDS011;7060;43.770;4.008;2023-04-06T13:56:32;3.33;;;0.70;;
13973;SDS011;7060;43.770;4.008;2023-04-06T13:59:00;3.43;;;0.87;;
13973;SDS011;7060;43.770;4.008;2023-04-06T14:01:30;3.53;;;0.83;;
13973;SDS011;7060;43.770;4.008;2023-04-06T14:03:59;2.47;;;0.83;;
13973;SDS011;7060;43.770;4.008;2023-04-06T14:06:27;0.90;;;0.77;;
13973;SDS011;7060;43.770;4.008;2023-04-06T14:08:57;1.00;;;0.70;;
13973;SDS011;7060;43.770;4.008;2023-04-06T14:11:26;1.80;;;0.80;;
13973;SDS011;7060;43.770;4.008;2023-04-06T14:13:57;1.47;;;0.67;;
13973;SDS011;7060;43.770;4.008;2023-04-06T14:16:25;1.63;;;0.90;;
13973;SDS011;7060;43.770;4.008;2023-04-06T14:18:54;1.20;;;0.60;;
13973;SDS011;7060;43.770;4.008;2023-04-06T14:21:24;8.33;;;1.07;;
13973;SDS011;7060;43.770;4.008;2023-04-06T14:23:53;2.13;;;1.10;;
13973;SDS011;7060;43.770;4.008;2023-04-06T14:26:25;2.80;;;0.90;;
13973;SDS011;7060;43.770;4.008;2023-04-06T14:28:54;2.57;;;0.83;;
13973;SDS011;7060;43.770;4.008;2023-04-06T14:31:24;3.73;;;0.93;;
13973;SDS011;7060;43.770;4.008;2023-04-06T14:33:53;2.63;;;0.90;;
13973;SDS011;7060;43.770;4.008;2023-04-06T14:36:21;4.03;;;0.77;;
13973;SDS011;7060;43.770;4.008;2023-04-06T14:38:50;2.73;;;0.90;;
13973;SDS011;7060;43.770;4.008;2023-04-06T14:41:19;1.40;;;0.90;;
13973;SDS011;7060;43.770;4.008;2023-04-06T14:43:49;1.70;;;0.90;;
13973;SDS011;7060;43.770;4.008;2023-04-06T14:46:19;4.57;;;1.23;;
13973;SDS011;7060;43.770;4.008;2023-04-06T14:48:49;2.33;;;1.07;;
13973;SDS011;7060;43.770;4.008;2023-04-06T14:51:18;3.83;;;1.17;;
13973;SDS011;7060;43.770;4.008;2023-04-06T14:53:47;1.83;;;0.90;;
13973;SDS011;7060;43.770;4.008;2023-04-06T14:56:18;3.10;;;1.23;;
13973;SDS011;7060;43.770;4.008;2023-04-06T14:58:48;2.37;;;1.00;;
13973;SDS011;7060;43.770;4.008;2023-04-06T15:01:18;1.53;;;0.80;;
13973;SDS011;7060;43.770;4.008;2023-04-06T15:03:47;3.70;;;0.80;;
13973;SDS011;7060;43.770;4.008;2023-04-06T15:06:18;1.73;;;1.00;;
13973;SDS011;7060;43.770;4.008;2023-04-06T15:08:48;1.43;;;0.80;;
13973;SDS011;7060;43.770;4.008;2023-04-06T15:11:17;3.17;;;0.90;;
13973;SDS011;7060;43.770;4.008;2023-04-06T15:13:46;1.30;;;0.80;;
13973;SDS011;7060;43.770;4.008;2023-04-06T15:16:15;2.07;;;0.80;;
13973;SDS011;7060;43.770;4.008;2023-04-06T15:18:43;2.03;;;1.00;;
13973;SDS011;7060;43.770;4.008;2023-04-06T15:21:12;1.13;;;0.77;;
13973;SDS011;7060;43.770;4.008;2023-04-06T15:23:42;1.40;;;0.80;;